NSE Airport (Whiting Field Nas North) Information

FAA: NSE - ICAO: KNSE

NSE Airport Location

State Florida
County Santa Rosa
City Milton
NSE Airport is 4 miles north of Milton, FL.
Latitude 30-43-20.9000N
Longitude 087-01-26.0510W
Elevation 199ft

KNSE Airport METARs

METAR KNSE 251456Z 18003KT 10SM FEW010 SCT025 BKN060 24/21 A2997 RMK SLP134 T02440211 51011
Altimeter 29.97"
Temperature 24.4°C (75.9°F)
Wind 180° at 3KT
Clouds few at 1,000ft scattered at 2,500ft broken at 6,000ft
Visibility 10.0mi
Time observed: 2021-10-25T14:56:00Z

NSE Airport Details

Status Operational
Activation N/A
Ownership Military - Navy
Usage Private
Chart NEW ORLEANS
ATC on-site Yes
Beacon schedule sunset-sunrise
Beacon color split clear green

NSE Airport Contacts

Owner US NAVY
Owner address OCEANOGRAPHIC OFC-CODE 3142, WASHINGTON, DC 20373
Owner phone N/A
Manager COMMANDING OFFICER
Manager address 7077 USS LEXINGTON COURT, MILTON, FL 32570-6155
Manager phone 850-623-7654

NSE Airport (Whiting Field Nas North) Radio Frequencies

NSE (Airport) Radio Frequencies

UNICOM N/A
Common traffic advisory frequency (CTAF) N/A